sensor_id;sensor_type;location;lat;lon;timestamp;P1;durP1;ratioP1;P2;durP2;ratioP2
38940;SDS011;43236;47.208;7.518;2022-08-03T00:00:52;2.38;;;1.10;;
38940;SDS011;43236;47.208;7.518;2022-08-03T00:03:39;2.70;;;1.10;;
38940;SDS011;43236;47.208;7.518;2022-08-03T00:06:26;3.20;;;1.25;;
38940;SDS011;43236;47.208;7.518;2022-08-03T00:09:13;3.10;;;1.30;;
38940;SDS011;43236;47.208;7.518;2022-08-03T00:12:00;1.52;;;0.75;;
38940;SDS011;43236;47.208;7.518;2022-08-03T00:14:47;5.25;;;1.50;;
38940;SDS011;43236;47.208;7.518;2022-08-03T00:17:36;5.57;;;1.10;;
38940;SDS011;43236;47.208;7.518;2022-08-03T00:20:23;2.65;;;1.10;;
38940;SDS011;43236;47.208;7.518;2022-08-03T00:23:10;1.98;;;1.00;;
38940;SDS011;43236;47.208;7.518;2022-08-03T00:25:57;2.90;;;1.10;;
38940;SDS011;43236;47.208;7.518;2022-08-03T00:28:44;2.60;;;1.30;;
38940;SDS011;43236;47.208;7.518;2022-08-03T00:31:31;3.80;;;1.20;;
38940;SDS011;43236;47.208;7.518;2022-08-03T00:34:20;5.30;;;1.40;;
38940;SDS011;43236;47.208;7.518;2022-08-03T00:37:07;4.80;;;1.35;;
38940;SDS011;43236;47.208;7.518;2022-08-03T00:39:54;2.08;;;1.17;;
38940;SDS011;43236;47.208;7.518;2022-08-03T00:42:48;3.97;;;1.30;;
38940;SDS011;43236;47.208;7.518;2022-08-03T00:45:38;1.95;;;1.10;;
38940;SDS011;43236;47.208;7.518;2022-08-03T00:48:26;5.13;;;1.27;;
38940;SDS011;43236;47.208;7.518;2022-08-03T00:51:15;3.20;;;1.30;;
38940;SDS011;43236;47.208;7.518;2022-08-03T00:54:02;2.85;;;1.30;;
38940;SDS011;43236;47.208;7.518;2022-08-03T00:56:50;3.55;;;1.30;;
38940;SDS011;43236;47.208;7.518;2022-08-03T00:59:38;3.25;;;1.15;;
38940;SDS011;43236;47.208;7.518;2022-08-03T01:02:25;4.03;;;1.42;;
38940;SDS011;43236;47.208;7.518;2022-08-03T01:05:12;2.35;;;1.00;;
38940;SDS011;43236;47.208;7.518;2022-08-03T01:08:02;2.60;;;1.10;;
38940;SDS011;43236;47.208;7.518;2022-08-03T01:10:59;4.25;;;1.20;;
38940;SDS011;43236;47.208;7.518;2022-08-03T01:13:56;2.70;;;1.30;;
38940;SDS011;43236;47.208;7.518;2022-08-03T01:16:50;2.90;;;1.27;;
38940;SDS011;43236;47.208;7.518;2022-08-03T01:19:46;1.67;;;1.05;;
38940;SDS011;43236;47.208;7.518;2022-08-03T01:22:43;2.60;;;1.20;;
38940;SDS011;43236;47.208;7.518;2022-08-03T01:25:52;3.05;;;1.13;;
38940;SDS011;43236;47.208;7.518;2022-08-03T01:28:55;2.33;;;1.15;;
38940;SDS011;43236;47.208;7.518;2022-08-03T01:31:51;3.88;;;1.40;;
38940;SDS011;43236;47.208;7.518;2022-08-03T01:34:44;2.25;;;1.17;;
38940;SDS011;43236;47.208;7.518;2022-08-03T01:37:38;3.50;;;1.50;;
38940;SDS011;43236;47.208;7.518;2022-08-03T01:40:27;3.88;;;1.35;;
38940;SDS011;43236;47.208;7.518;2022-08-03T01:43:17;3.00;;;1.30;;
38940;SDS011;43236;47.208;7.518;2022-08-03T01:46:07;5.07;;;1.30;;
38940;SDS011;43236;47.208;7.518;2022-08-03T01:48:58;3.38;;;1.17;;
38940;SDS011;43236;47.208;7.518;2022-08-03T01:51:46;3.22;;;1.20;;
38940;SDS011;43236;47.208;7.518;2022-08-03T01:54:35;2.88;;;1.40;;
38940;SDS011;43236;47.208;7.518;2022-08-03T01:57:27;3.60;;;1.70;;
38940;SDS011;43236;47.208;7.518;2022-08-03T02:00:16;2.85;;;1.30;;
38940;SDS011;43236;47.208;7.518;2022-08-03T02:03:04;3.88;;;1.48;;
38940;SDS011;43236;47.208;7.518;2022-08-03T02:05:54;4.00;;;1.40;;
38940;SDS011;43236;47.208;7.518;2022-08-03T02:08:43;3.95;;;1.30;;
38940;SDS011;43236;47.208;7.518;2022-08-03T02:11:32;5.22;;;1.58;;
38940;SDS011;43236;47.208;7.518;2022-08-03T02:14:20;3.28;;;1.42;;
38940;SDS011;43236;47.208;7.518;2022-08-03T02:17:09;2.97;;;1.33;;
38940;SDS011;43236;47.208;7.518;2022-08-03T02:19:57;4.85;;;1.67;;
38940;SDS011;43236;47.208;7.518;2022-08-03T02:22:47;3.65;;;1.40;;
38940;SDS011;43236;47.208;7.518;2022-08-03T02:25:37;3.38;;;1.23;;
38940;SDS011;43236;47.208;7.518;2022-08-03T02:28:29;4.72;;;1.45;;
38940;SDS011;43236;47.208;7.518;2022-08-03T02:31:22;2.20;;;1.10;;
38940;SDS011;43236;47.208;7.518;2022-08-03T02:34:13;2.30;;;1.00;;
38940;SDS011;43236;47.208;7.518;2022-08-03T02:37:02;1.95;;;1.15;;
38940;SDS011;43236;47.208;7.518;2022-08-03T02:39:52;7.13;;;1.48;;
38940;SDS011;43236;47.208;7.518;2022-08-03T02:42:44;2.90;;;1.45;;
38940;SDS011;43236;47.208;7.518;2022-08-03T02:45:34;6.63;;;1.52;;
38940;SDS011;43236;47.208;7.518;2022-08-03T02:48:24;3.25;;;1.38;;
38940;SDS011;43236;47.208;7.518;2022-08-03T02:51:14;3.65;;;1.25;;
38940;SDS011;43236;47.208;7.518;2022-08-03T02:54:04;4.20;;;1.50;;
38940;SDS011;43236;47.208;7.518;2022-08-03T02:56:54;4.72;;;1.35;;
38940;SDS011;43236;47.208;7.518;2022-08-03T02:59:43;4.68;;;1.48;;
38940;SDS011;43236;47.208;7.518;2022-08-03T03:02:31;4.53;;;1.15;;
38940;SDS011;43236;47.208;7.518;2022-08-03T03:05:19;7.03;;;1.40;;
38940;SDS011;43236;47.208;7.518;2022-08-03T03:08:06;4.45;;;1.25;;
38940;SDS011;43236;47.208;7.518;2022-08-03T03:10:55;2.35;;;1.20;;
38940;SDS011;43236;47.208;7.518;2022-08-03T03:13:46;4.07;;;1.25;;
38940;SDS011;43236;47.208;7.518;2022-08-03T03:16:35;3.30;;;1.50;;
38940;SDS011;43236;47.208;7.518;2022-08-03T03:19:22;3.35;;;1.42;;
38940;SDS011;43236;47.208;7.518;2022-08-03T03:22:11;2.70;;;1.08;;
38940;SDS011;43236;47.208;7.518;2022-08-03T03:25:00;3.45;;;1.50;;
38940;SDS011;43236;47.208;7.518;2022-08-03T03:27:47;4.43;;;1.17;;
38940;SDS011;43236;47.208;7.518;2022-08-03T03:30:36;4.80;;;1.30;;
38940;SDS011;43236;47.208;7.518;2022-08-03T03:33:23;2.85;;;1.50;;
38940;SDS011;43236;47.208;7.518;2022-08-03T03:36:11;3.22;;;1.10;;
38940;SDS011;43236;47.208;7.518;2022-08-03T03:38:58;3.13;;;1.30;;
38940;SDS011;43236;47.208;7.518;2022-08-03T03:41:45;2.92;;;1.20;;
38940;SDS011;43236;47.208;7.518;2022-08-03T03:44:32;3.53;;;1.30;;
38940;SDS011;43236;47.208;7.518;2022-08-03T03:47:21;5.05;;;1.42;;
38940;SDS011;43236;47.208;7.518;2022-08-03T03:50:08;3.13;;;1.30;;
38940;SDS011;43236;47.208;7.518;2022-08-03T03:52:56;4.97;;;1.60;;
38940;SDS011;43236;47.208;7.518;2022-08-03T03:55:43;4.10;;;1.80;;
38940;SDS011;43236;47.208;7.518;2022-08-03T03:58:31;3.47;;;1.38;;
38940;SDS011;43236;47.208;7.518;2022-08-03T04:01:18;4.78;;;1.60;;
38940;SDS011;43236;47.208;7.518;2022-08-03T04:04:07;5.93;;;1.63;;
38940;SDS011;43236;47.208;7.518;2022-08-03T04:07:08;7.97;;;1.80;;
38940;SDS011;43236;47.208;7.518;2022-08-03T04:10:14;2.47;;;1.27;;
38940;SDS011;43236;47.208;7.518;2022-08-03T04:13:24;2.85;;;1.50;;
38940;SDS011;43236;47.208;7.518;2022-08-03T04:16:15;9.20;;;1.92;;
38940;SDS011;43236;47.208;7.518;2022-08-03T04:19:08;6.47;;;1.80;;
38940;SDS011;43236;47.208;7.518;2022-08-03T04:21:59;3.35;;;1.60;;
38940;SDS011;43236;47.208;7.518;2022-08-03T04:24:52;8.20;;;1.60;;
38940;SDS011;43236;47.208;7.518;2022-08-03T04:27:43;3.05;;;1.45;;
38940;SDS011;43236;47.208;7.518;2022-08-03T04:30:33;9.65;;;1.83;;
38940;SDS011;43236;47.208;7.518;2022-08-03T04:33:23;3.42;;;1.52;;
38940;SDS011;43236;47.208;7.518;2022-08-03T04:36:15;4.35;;;1.60;;
38940;SDS011;43236;47.208;7.518;2022-08-03T04:41:55;7.32;;;1.50;;
38940;SDS011;43236;47.208;7.518;2022-08-03T04:44:45;4.15;;;1.48;;
38940;SDS011;43236;47.208;7.518;2022-08-03T04:47:33;5.00;;;1.52;;
38940;SDS011;43236;47.208;7.518;2022-08-03T04:50:21;4.95;;;1.70;;
38940;SDS011;43236;47.208;7.518;2022-08-03T04:53:10;3.30;;;1.52;;
38940;SDS011;43236;47.208;7.518;2022-08-03T04:56:02;4.45;;;1.83;;
38940;SDS011;43236;47.208;7.518;2022-08-03T04:58:49;2.97;;;1.52;;
38940;SDS011;43236;47.208;7.518;2022-08-03T05:01:37;7.30;;;1.67;;
38940;SDS011;43236;47.208;7.518;2022-08-03T05:04:25;5.65;;;1.38;;
38940;SDS011;43236;47.208;7.518;2022-08-03T05:07:12;3.75;;;1.63;;
38940;SDS011;43236;47.208;7.518;2022-08-03T05:10:01;6.22;;;1.67;;
38940;SDS011;43236;47.208;7.518;2022-08-03T05:12:48;5.95;;;1.92;;
38940;SDS011;43236;47.208;7.518;2022-08-03T05:15:36;8.52;;;2.20;;
38940;SDS011;43236;47.208;7.518;2022-08-03T05:18:23;3.75;;;1.73;;
38940;SDS011;43236;47.208;7.518;2022-08-03T05:21:12;5.07;;;1.58;;
38940;SDS011;43236;47.208;7.518;2022-08-03T05:24:01;4.45;;;1.80;;
38940;SDS011;43236;47.208;7.518;2022-08-03T05:26:49;4.75;;;1.75;;
38940;SDS011;43236;47.208;7.518;2022-08-03T05:29:36;12.10;;;3.15;;
38940;SDS011;43236;47.208;7.518;2022-08-03T05:32:23;4.93;;;2.10;;
38940;SDS011;43236;47.208;7.518;2022-08-03T05:35:10;6.80;;;2.22;;
38940;SDS011;43236;47.208;7.518;2022-08-03T05:37:57;7.78;;;2.28;;
38940;SDS011;43236;47.208;7.518;2022-08-03T05:40:44;5.47;;;2.35;;
38940;SDS011;43236;47.208;7.518;2022-08-03T05:43:33;5.47;;;2.20;;
38940;SDS011;43236;47.208;7.518;2022-08-03T05:46:20;8.77;;;2.22;;
38940;SDS011;43236;47.208;7.518;2022-08-03T05:49:08;5.15;;;2.40;;
38940;SDS011;43236;47.208;7.518;2022-08-03T05:51:55;8.95;;;2.33;;
38940;SDS011;43236;47.208;7.518;2022-08-03T05:54:42;5.72;;;2.08;;
38940;SDS011;43236;47.208;7.518;2022-08-03T05:57:29;5.75;;;2.38;;
38940;SDS011;43236;47.208;7.518;2022-08-03T06:00:18;5.63;;;2.30;;
38940;SDS011;43236;47.208;7.518;2022-08-03T06:03:06;5.05;;;1.98;;
38940;SDS011;43236;47.208;7.518;2022-08-03T06:05:53;5.22;;;1.92;;
38940;SDS011;43236;47.208;7.518;2022-08-03T06:08:41;4.43;;;1.75;;
38940;SDS011;43236;47.208;7.518;2022-08-03T06:11:28;8.35;;;2.22;;
38940;SDS011;43236;47.208;7.518;2022-08-03T06:14:16;4.13;;;1.70;;
38940;SDS011;43236;47.208;7.518;2022-08-03T06:17:04;7.13;;;2.08;;
38940;SDS011;43236;47.208;7.518;2022-08-03T06:19:51;6.20;;;2.10;;
38940;SDS011;43236;47.208;7.518;2022-08-03T06:22:38;5.40;;;2.00;;
38940;SDS011;43236;47.208;7.518;2022-08-03T06:25:26;7.05;;;2.08;;
38940;SDS011;43236;47.208;7.518;2022-08-03T06:28:13;5.85;;;2.08;;
38940;SDS011;43236;47.208;7.518;2022-08-03T06:31:02;8.60;;;2.40;;
38940;SDS011;43236;47.208;7.518;2022-08-03T06:33:50;10.82;;;2.30;;
38940;SDS011;43236;47.208;7.518;2022-08-03T06:36:38;4.95;;;1.95;;
38940;SDS011;43236;47.208;7.518;2022-08-03T06:39:25;6.38;;;2.03;;
38940;SDS011;43236;47.208;7.518;2022-08-03T06:42:12;5.55;;;2.25;;
38940;SDS011;43236;47.208;7.518;2022-08-03T06:44:59;6.35;;;2.08;;
38940;SDS011;43236;47.208;7.518;2022-08-03T06:47:58;4.20;;;1.90;;
38940;SDS011;43236;47.208;7.518;2022-08-03T06:50:47;6.95;;;2.20;;
38940;SDS011;43236;47.208;7.518;2022-08-03T06:53:34;10.60;;;2.60;;
38940;SDS011;43236;47.208;7.518;2022-08-03T06:56:21;3.72;;;1.80;;
38940;SDS011;43236;47.208;7.518;2022-08-03T06:59:08;6.57;;;2.60;;
38940;SDS011;43236;47.208;7.518;2022-08-03T07:01:55;6.28;;;1.92;;
38940;SDS011;43236;47.208;7.518;2022-08-03T07:04:42;4.85;;;1.90;;
38940;SDS011;43236;47.208;7.518;2022-08-03T07:07:31;5.28;;;1.90;;
38940;SDS011;43236;47.208;7.518;2022-08-03T07:10:18;5.25;;;1.90;;
38940;SDS011;43236;47.208;7.518;2022-08-03T07:13:05;4.68;;;2.10;;
38940;SDS011;43236;47.208;7.518;2022-08-03T07:15:53;4.05;;;1.90;;
38940;SDS011;43236;47.208;7.518;2022-08-03T07:18:40;4.88;;;1.50;;
38940;SDS011;43236;47.208;7.518;2022-08-03T07:21:27;5.40;;;1.88;;
38940;SDS011;43236;47.208;7.518;2022-08-03T07:24:15;3.80;;;1.92;;
38940;SDS011;43236;47.208;7.518;2022-08-03T07:27:02;8.10;;;2.10;;
38940;SDS011;43236;47.208;7.518;2022-08-03T07:29:50;3.40;;;1.88;;
38940;SDS011;43236;47.208;7.518;2022-08-03T07:32:37;6.05;;;1.98;;
38940;SDS011;43236;47.208;7.518;2022-08-03T07:35:24;4.88;;;1.67;;
38940;SDS011;43236;47.208;7.518;2022-08-03T07:38:11;9.20;;;2.03;;
38940;SDS011;43236;47.208;7.518;2022-08-03T07:40:59;3.75;;;1.90;;
38940;SDS011;43236;47.208;7.518;2022-08-03T07:43:46;4.82;;;1.67;;
38940;SDS011;43236;47.208;7.518;2022-08-03T07:46:33;3.55;;;1.70;;
38940;SDS011;43236;47.208;7.518;2022-08-03T07:49:21;5.90;;;1.98;;
38940;SDS011;43236;47.208;7.518;2022-08-03T07:52:08;6.90;;;1.75;;
38940;SDS011;43236;47.208;7.518;2022-08-03T07:58:04;4.75;;;2.03;;
38940;SDS011;43236;47.208;7.518;2022-08-03T08:00:54;8.70;;;1.95;;
38940;SDS011;43236;47.208;7.518;2022-08-03T08:03:41;4.75;;;1.88;;
38940;SDS011;43236;47.208;7.518;2022-08-03T08:06:28;3.65;;;1.52;;
38940;SDS011;43236;47.208;7.518;2022-08-03T08:09:16;4.15;;;1.60;;
38940;SDS011;43236;47.208;7.518;2022-08-03T08:12:05;3.33;;;1.88;;
38940;SDS011;43236;47.208;7.518;2022-08-03T08:14:54;3.53;;;1.63;;
38940;SDS011;43236;47.208;7.518;2022-08-03T08:17:42;4.95;;;1.92;;
38940;SDS011;43236;47.208;7.518;2022-08-03T08:20:30;7.28;;;1.65;;
38940;SDS011;43236;47.208;7.518;2022-08-03T08:23:19;17.67;;;1.40;;
38940;SDS011;43236;47.208;7.518;2022-08-03T08:26:08;3.00;;;1.27;;
38940;SDS011;43236;47.208;7.518;2022-08-03T08:28:55;6.57;;;1.73;;
38940;SDS011;43236;47.208;7.518;2022-08-03T08:31:43;5.55;;;1.50;;
38940;SDS011;43236;47.208;7.518;2022-08-03T08:34:30;3.72;;;1.55;;
38940;SDS011;43236;47.208;7.518;2022-08-03T08:37:17;9.13;;;1.50;;
38940;SDS011;43236;47.208;7.518;2022-08-03T08:40:05;6.78;;;1.80;;
38940;SDS011;43236;47.208;7.518;2022-08-03T08:42:53;3.55;;;1.60;;
38940;SDS011;43236;47.208;7.518;2022-08-03T08:45:40;2.78;;;1.27;;
38940;SDS011;43236;47.208;7.518;2022-08-03T08:48:30;6.85;;;1.95;;
38940;SDS011;43236;47.208;7.518;2022-08-03T08:51:18;4.60;;;1.45;;
38940;SDS011;43236;47.208;7.518;2022-08-03T08:54:06;3.38;;;1.30;;
38940;SDS011;43236;47.208;7.518;2022-08-03T08:56:55;5.30;;;1.60;;
38940;SDS011;43236;47.208;7.518;2022-08-03T08:59:47;4.53;;;1.23;;
38940;SDS011;43236;47.208;7.518;2022-08-03T09:02:34;6.53;;;1.60;;
38940;SDS011;43236;47.208;7.518;2022-08-03T09:05:23;6.10;;;1.33;;
38940;SDS011;43236;47.208;7.518;2022-08-03T09:08:10;3.97;;;1.30;;
38940;SDS011;43236;47.208;7.518;2022-08-03T09:10:57;2.72;;;1.52;;
38940;SDS011;43236;47.208;7.518;2022-08-03T09:13:44;3.50;;;1.40;;
38940;SDS011;43236;47.208;7.518;2022-08-03T09:16:31;2.30;;;1.15;;
38940;SDS011;43236;47.208;7.518;2022-08-03T09:19:18;2.75;;;1.48;;
38940;SDS011;43236;47.208;7.518;2022-08-03T09:22:07;2.72;;;1.40;;
38940;SDS011;43236;47.208;7.518;2022-08-03T09:24:58;2.65;;;1.00;;
38940;SDS011;43236;47.208;7.518;2022-08-03T09:27:47;2.03;;;0.90;;
38940;SDS011;43236;47.208;7.518;2022-08-03T09:30:34;2.22;;;1.10;;
38940;SDS011;43236;47.208;7.518;2022-08-03T09:33:22;1.73;;;1.00;;
38940;SDS011;43236;47.208;7.518;2022-08-03T09:36:09;5.63;;;1.40;;
38940;SDS011;43236;47.208;7.518;2022-08-03T09:39:22;2.38;;;0.90;;
38940;SDS011;43236;47.208;7.518;2022-08-03T09:42:11;5.40;;;1.25;;
38940;SDS011;43236;47.208;7.518;2022-08-03T09:44:59;2.85;;;1.15;;
38940;SDS011;43236;47.208;7.518;2022-08-03T09:47:46;2.40;;;1.10;;
38940;SDS011;43236;47.208;7.518;2022-08-03T09:50:46;2.50;;;1.25;;
38940;SDS011;43236;47.208;7.518;2022-08-03T09:53:40;2.65;;;1.30;;
38940;SDS011;43236;47.208;7.518;2022-08-03T09:56:39;2.50;;;1.30;;
38940;SDS011;43236;47.208;7.518;2022-08-03T09:59:27;3.45;;;1.33;;
38940;SDS011;43236;47.208;7.518;2022-08-03T10:02:19;2.92;;;1.30;;
38940;SDS011;43236;47.208;7.518;2022-08-03T10:05:09;6.53;;;1.30;;
38940;SDS011;43236;47.208;7.518;2022-08-03T10:07:57;2.88;;;1.40;;
38940;SDS011;43236;47.208;7.518;2022-08-03T10:10:45;3.38;;;1.30;;
38940;SDS011;43236;47.208;7.518;2022-08-03T10:13:35;2.85;;;1.33;;
38940;SDS011;43236;47.208;7.518;2022-08-03T10:16:23;3.90;;;1.48;;
38940;SDS011;43236;47.208;7.518;2022-08-03T10:19:10;2.78;;;1.20;;
38940;SDS011;43236;47.208;7.518;2022-08-03T10:22:00;3.67;;;1.33;;
38940;SDS011;43236;47.208;7.518;2022-08-03T10:24:51;5.78;;;1.60;;
38940;SDS011;43236;47.208;7.518;2022-08-03T10:27:41;3.45;;;1.67;;
38940;SDS011;43236;47.208;7.518;2022-08-03T10:30:34;3.35;;;1.67;;
38940;SDS011;43236;47.208;7.518;2022-08-03T10:33:23;4.45;;;1.52;;
38940;SDS011;43236;47.208;7.518;2022-08-03T10:36:12;2.88;;;1.33;;
38940;SDS011;43236;47.208;7.518;2022-08-03T10:39:01;2.53;;;1.45;;
38940;SDS011;43236;47.208;7.518;2022-08-03T10:41:48;10.00;;;1.83;;
38940;SDS011;43236;47.208;7.518;2022-08-03T10:44:38;2.88;;;1.45;;
38940;SDS011;43236;47.208;7.518;2022-08-03T10:47:27;2.75;;;1.60;;
38940;SDS011;43236;47.208;7.518;2022-08-03T10:50:15;7.35;;;1.60;;
38940;SDS011;43236;47.208;7.518;2022-08-03T10:53:04;6.78;;;1.50;;
38940;SDS011;43236;47.208;7.518;2022-08-03T10:55:52;5.18;;;1.88;;
38940;SDS011;43236;47.208;7.518;2022-08-03T10:58:57;3.22;;;1.40;;
38940;SDS011;43236;47.208;7.518;2022-08-03T11:01:48;3.63;;;1.40;;
38940;SDS011;43236;47.208;7.518;2022-08-03T11:04:38;2.58;;;1.38;;
38940;SDS011;43236;47.208;7.518;2022-08-03T11:07:25;4.05;;;1.73;;
38940;SDS011;43236;47.208;7.518;2022-08-03T11:10:22;4.07;;;1.60;;
38940;SDS011;43236;47.208;7.518;2022-08-03T11:13:16;3.50;;;1.90;;
38940;SDS011;43236;47.208;7.518;2022-08-03T11:16:17;7.05;;;1.60;;
38940;SDS011;43236;47.208;7.518;2022-08-03T11:19:08;9.35;;;1.77;;
38940;SDS011;43236;47.208;7.518;2022-08-03T11:21:58;4.88;;;1.60;;
38940;SDS011;43236;47.208;7.518;2022-08-03T11:34:29;3.05;;;1.60;;
38940;SDS011;43236;47.208;7.518;2022-08-03T11:37:18;5.40;;;1.55;;
38940;SDS011;43236;47.208;7.518;2022-08-03T11:40:07;9.07;;;1.50;;
38940;SDS011;43236;47.208;7.518;2022-08-03T11:43:43;3.38;;;1.80;;
38940;SDS011;43236;47.208;7.518;2022-08-03T11:46:34;2.67;;;1.45;;
38940;SDS011;43236;47.208;7.518;2022-08-03T11:49:22;7.55;;;1.70;;
38940;SDS011;43236;47.208;7.518;2022-08-03T11:52:10;10.23;;;1.77;;
38940;SDS011;43236;47.208;7.518;2022-08-03T11:54:58;3.65;;;1.58;;
38940;SDS011;43236;47.208;7.518;2022-08-03T11:57:46;3.65;;;1.30;;
38940;SDS011;43236;47.208;7.518;2022-08-03T12:00:34;3.92;;;1.63;;
38940;SDS011;43236;47.208;7.518;2022-08-03T12:03:21;3.58;;;1.45;;
38940;SDS011;43236;47.208;7.518;2022-08-03T12:06:08;3.05;;;1.52;;
38940;SDS011;43236;47.208;7.518;2022-08-03T12:08:56;3.28;;;1.70;;
38940;SDS011;43236;47.208;7.518;2022-08-03T12:11:47;4.20;;;1.60;;
38940;SDS011;43236;47.208;7.518;2022-08-03T12:14:35;3.25;;;1.50;;
38940;SDS011;43236;47.208;7.518;2022-08-03T12:17:22;2.95;;;1.55;;
38940;SDS011;43236;47.208;7.518;2022-08-03T12:20:13;6.20;;;1.60;;
38940;SDS011;43236;47.208;7.518;2022-08-03T12:23:08;3.65;;;1.30;;
38940;SDS011;43236;47.208;7.518;2022-08-03T12:25:59;6.35;;;1.80;;
38940;SDS011;43236;47.208;7.518;2022-08-03T12:28:49;5.05;;;1.65;;
38940;SDS011;43236;47.208;7.518;2022-08-03T12:31:36;3.75;;;1.90;;
38940;SDS011;43236;47.208;7.518;2022-08-03T12:34:23;5.13;;;1.70;;
38940;SDS011;43236;47.208;7.518;2022-08-03T12:37:30;2.47;;;1.35;;
38940;SDS011;43236;47.208;7.518;2022-08-03T12:40:23;3.33;;;1.40;;
38940;SDS011;43236;47.208;7.518;2022-08-03T12:43:11;5.63;;;1.65;;
38940;SDS011;43236;47.208;7.518;2022-08-03T12:46:07;3.10;;;1.55;;
38940;SDS011;43236;47.208;7.518;2022-08-03T12:49:03;5.65;;;1.60;;
38940;SDS011;43236;47.208;7.518;2022-08-03T12:51:56;3.25;;;1.60;;
38940;SDS011;43236;47.208;7.518;2022-08-03T12:54:53;2.83;;;1.25;;
38940;SDS011;43236;47.208;7.518;2022-08-03T12:57:41;2.67;;;1.10;;
38940;SDS011;43236;47.208;7.518;2022-08-03T13:00:28;4.70;;;1.45;;
38940;SDS011;43236;47.208;7.518;2022-08-03T13:03:17;2.50;;;1.10;;
38940;SDS011;43236;47.208;7.518;2022-08-03T13:06:09;2.97;;;1.58;;
38940;SDS011;43236;47.208;7.518;2022-08-03T13:09:00;2.65;;;1.30;;
38940;SDS011;43236;47.208;7.518;2022-08-03T13:12:03;2.80;;;1.20;;
38940;SDS011;43236;47.208;7.518;2022-08-03T13:14:52;2.45;;;1.20;;
38940;SDS011;43236;47.208;7.518;2022-08-03T13:17:42;6.40;;;1.40;;
38940;SDS011;43236;47.208;7.518;2022-08-03T13:20:30;3.08;;;1.30;;
38940;SDS011;43236;47.208;7.518;2022-08-03T13:23:18;3.05;;;1.50;;
38940;SDS011;43236;47.208;7.518;2022-08-03T13:26:05;2.45;;;1.23;;
38940;SDS011;43236;47.208;7.518;2022-08-03T13:28:52;4.40;;;1.42;;
38940;SDS011;43236;47.208;7.518;2022-08-03T13:31:40;4.03;;;1.60;;
38940;SDS011;43236;47.208;7.518;2022-08-03T13:34:27;4.60;;;1.48;;
38940;SDS011;43236;47.208;7.518;2022-08-03T13:37:16;3.90;;;1.20;;
38940;SDS011;43236;47.208;7.518;2022-08-03T13:40:03;4.93;;;1.40;;
38940;SDS011;43236;47.208;7.518;2022-08-03T13:42:52;2.75;;;1.27;;
38940;SDS011;43236;47.208;7.518;2022-08-03T13:45:39;3.97;;;1.50;;
38940;SDS011;43236;47.208;7.518;2022-08-03T13:48:26;5.03;;;1.30;;
38940;SDS011;43236;47.208;7.518;2022-08-03T13:51:13;3.13;;;1.35;;
38940;SDS011;43236;47.208;7.518;2022-08-03T13:54:02;2.80;;;1.38;;
38940;SDS011;43236;47.208;7.518;2022-08-03T13:56:49;2.80;;;1.42;;
38940;SDS011;43236;47.208;7.518;2022-08-03T13:59:37;3.38;;;1.33;;
38940;SDS011;43236;47.208;7.518;2022-08-03T14:02:24;3.28;;;1.50;;
38940;SDS011;43236;47.208;7.518;2022-08-03T14:05:11;3.28;;;1.48;;
38940;SDS011;43236;47.208;7.518;2022-08-03T14:07:59;4.13;;;1.52;;
38940;SDS011;43236;47.208;7.518;2022-08-03T14:10:47;3.50;;;1.70;;
38940;SDS011;43236;47.208;7.518;2022-08-03T14:13:34;4.75;;;1.52;;
38940;SDS011;43236;47.208;7.518;2022-08-03T14:16:21;4.55;;;1.50;;
38940;SDS011;43236;47.208;7.518;2022-08-03T14:19:08;5.63;;;1.52;;
38940;SDS011;43236;47.208;7.518;2022-08-03T14:21:56;4.38;;;1.67;;
38940;SDS011;43236;47.208;7.518;2022-08-03T14:24:43;3.15;;;1.50;;
38940;SDS011;43236;47.208;7.518;2022-08-03T14:27:32;3.25;;;1.33;;
38940;SDS011;43236;47.208;7.518;2022-08-03T14:30:19;4.03;;;1.52;;
38940;SDS011;43236;47.208;7.518;2022-08-03T14:33:06;3.13;;;1.63;;
38940;SDS011;43236;47.208;7.518;2022-08-03T14:35:53;4.47;;;1.55;;
38940;SDS011;43236;47.208;7.518;2022-08-03T14:38:40;3.00;;;1.35;;
38940;SDS011;43236;47.208;7.518;2022-08-03T14:41:28;3.05;;;1.33;;
38940;SDS011;43236;47.208;7.518;2022-08-03T14:44:16;6.68;;;1.30;;
38940;SDS011;43236;47.208;7.518;2022-08-03T14:47:03;2.83;;;1.40;;
38940;SDS011;43236;47.208;7.518;2022-08-03T14:49:50;2.95;;;1.60;;
38940;SDS011;43236;47.208;7.518;2022-08-03T14:52:38;4.40;;;1.60;;
38940;SDS011;43236;47.208;7.518;2022-08-03T14:55:25;5.63;;;1.60;;
38940;SDS011;43236;47.208;7.518;2022-08-03T14:58:12;3.75;;;1.50;;
38940;SDS011;43236;47.208;7.518;2022-08-03T15:01:00;6.97;;;1.70;;
38940;SDS011;43236;47.208;7.518;2022-08-03T15:03:47;3.67;;;1.50;;
38940;SDS011;43236;47.208;7.518;2022-08-03T15:06:34;4.47;;;1.63;;
38940;SDS011;43236;47.208;7.518;2022-08-03T15:09:21;3.17;;;1.65;;
38940;SDS011;43236;47.208;7.518;2022-08-03T15:12:08;4.63;;;1.60;;
38940;SDS011;43236;47.208;7.518;2022-08-03T15:14:56;3.42;;;1.55;;
38940;SDS011;43236;47.208;7.518;2022-08-03T15:17:45;4.38;;;1.55;;
38940;SDS011;43236;47.208;7.518;2022-08-03T15:20:32;7.05;;;1.75;;
38940;SDS011;43236;47.208;7.518;2022-08-03T15:23:19;8.15;;;1.70;;
38940;SDS011;43236;47.208;7.518;2022-08-03T15:26:06;5.88;;;1.73;;
38940;SDS011;43236;47.208;7.518;2022-08-03T15:28:53;4.32;;;1.65;;
38940;SDS011;43236;47.208;7.518;2022-08-03T15:31:40;7.28;;;1.70;;
38940;SDS011;43236;47.208;7.518;2022-08-03T15:34:29;2.17;;;1.25;;
38940;SDS011;43236;47.208;7.518;2022-08-03T15:37:16;6.25;;;1.40;;
38940;SDS011;43236;47.208;7.518;2022-08-03T15:40:05;5.03;;;1.60;;
38940;SDS011;43236;47.208;7.518;2022-08-03T15:42:52;6.18;;;1.70;;
38940;SDS011;43236;47.208;7.518;2022-08-03T15:45:39;2.97;;;1.20;;
38940;SDS011;43236;47.208;7.518;2022-08-03T15:48:27;3.10;;;1.52;;
38940;SDS011;43236;47.208;7.518;2022-08-03T15:51:15;3.25;;;1.67;;
38940;SDS011;43236;47.208;7.518;2022-08-03T15:54:02;7.03;;;1.60;;
38940;SDS011;43236;47.208;7.518;2022-08-03T15:56:50;4.50;;;1.45;;
38940;SDS011;43236;47.208;7.518;2022-08-03T15:59:37;3.13;;;1.50;;
38940;SDS011;43236;47.208;7.518;2022-08-03T16:02:24;5.32;;;1.38;;
38940;SDS011;43236;47.208;7.518;2022-08-03T16:05:11;7.70;;;1.40;;
38940;SDS011;43236;47.208;7.518;2022-08-03T16:07:59;2.40;;;1.30;;
38940;SDS011;43236;47.208;7.518;2022-08-03T16:10:46;3.17;;;1.50;;
38940;SDS011;43236;47.208;7.518;2022-08-03T16:13:33;3.85;;;1.75;;
38940;SDS011;43236;47.208;7.518;2022-08-03T16:16:21;4.72;;;1.58;;
38940;SDS011;43236;47.208;7.518;2022-08-03T16:19:08;2.88;;;1.40;;
38940;SDS011;43236;47.208;7.518;2022-08-03T16:21:55;3.53;;;1.38;;
38940;SDS011;43236;47.208;7.518;2022-08-03T16:24:43;3.88;;;1.60;;
38940;SDS011;43236;47.208;7.518;2022-08-03T16:27:30;6.65;;;1.50;;
38940;SDS011;43236;47.208;7.518;2022-08-03T16:30:18;5.20;;;1.55;;
38940;SDS011;43236;47.208;7.518;2022-08-03T16:33:05;3.67;;;1.52;;
38940;SDS011;43236;47.208;7.518;2022-08-03T16:35:52;4.22;;;1.40;;
38940;SDS011;43236;47.208;7.518;2022-08-03T16:38:40;5.53;;;1.90;;
38940;SDS011;43236;47.208;7.518;2022-08-03T16:41:28;7.07;;;1.60;;
38940;SDS011;43236;47.208;7.518;2022-08-03T16:44:15;3.53;;;1.60;;
38940;SDS011;43236;47.208;7.518;2022-08-03T16:47:02;3.63;;;1.40;;
38940;SDS011;43236;47.208;7.518;2022-08-03T16:49:49;2.53;;;1.27;;
38940;SDS011;43236;47.208;7.518;2022-08-03T16:52:37;2.38;;;1.10;;
38940;SDS011;43236;47.208;7.518;2022-08-03T16:55:24;4.32;;;1.40;;
38940;SDS011;43236;47.208;7.518;2022-08-03T16:58:13;2.78;;;1.40;;
38940;SDS011;43236;47.208;7.518;2022-08-03T17:01:02;3.63;;;1.35;;
38940;SDS011;43236;47.208;7.518;2022-08-03T17:03:49;3.20;;;1.40;;
38940;SDS011;43236;47.208;7.518;2022-08-03T17:06:38;6.90;;;1.30;;
38940;SDS011;43236;47.208;7.518;2022-08-03T17:09:26;4.85;;;1.52;;
38940;SDS011;43236;47.208;7.518;2022-08-03T17:12:15;4.70;;;1.60;;
38940;SDS011;43236;47.208;7.518;2022-08-03T17:15:04;2.80;;;1.42;;